sensor_id;sensor_type;location;lat;lon;timestamp;pressure;altitude;pressure_sealevel;temperature;humidity
10992;BME280;5549;47.028;15.514;2022-09-28T00:01:31;95333.53;;;10.78;80.18
10992;BME280;5549;47.028;15.514;2022-09-28T00:04:02;95319.22;;;10.65;79.74
10992;BME280;5549;47.028;15.514;2022-09-28T00:06:44;95320.44;;;10.44;79.64
10992;BME280;5549;47.028;15.514;2022-09-28T00:09:13;95318.81;;;10.43;80.36
10992;BME280;5549;47.028;15.514;2022-09-28T00:11:45;95316.78;;;10.37;80.25
10992;BME280;5549;47.028;15.514;2022-09-28T00:14:25;95311.91;;;10.42;80.64
10992;BME280;5549;47.028;15.514;2022-09-28T00:17:04;95305.22;;;10.48;80.38
10992;BME280;5549;47.028;15.514;2022-09-28T00:19:40;95313.09;;;10.48;80.74
10992;BME280;5549;47.028;15.514;2022-09-28T00:22:11;95314.53;;;10.42;79.69
10992;BME280;5549;47.028;15.514;2022-09-28T00:24:42;95336.88;;;10.46;80.56
10992;BME280;5549;47.028;15.514;2022-09-28T00:27:13;95333.09;;;10.49;80.40
10992;BME280;5549;47.028;15.514;2022-09-28T00:29:47;95333.75;;;10.51;81.12
10992;BME280;5549;47.028;15.514;2022-09-28T00:32:17;95324.09;;;10.51;80.66
10992;BME280;5549;47.028;15.514;2022-09-28T00:34:51;95316.06;;;10.53;80.78
10992;BME280;5549;47.028;15.514;2022-09-28T00:37:23;95305.56;;;10.53;80.67
10992;BME280;5549;47.028;15.514;2022-09-28T00:40:09;95298.50;;;10.53;80.52
10992;BME280;5549;47.028;15.514;2022-09-28T00:42:41;95298.00;;;10.50;79.75
10992;BME280;5549;47.028;15.514;2022-09-28T00:45:17;95313.72;;;10.42;79.54
10992;BME280;5549;47.028;15.514;2022-09-28T00:47:55;95317.25;;;10.33;80.47
10992;BME280;5549;47.028;15.514;2022-09-28T00:50:37;95314.13;;;10.29;80.07
10992;BME280;5549;47.028;15.514;2022-09-28T00:53:10;95313.78;;;10.24;79.92
10992;BME280;5549;47.028;15.514;2022-09-28T00:55:47;95308.16;;;10.19;80.46
10992;BME280;5549;47.028;15.514;2022-09-28T00:58:26;95309.81;;;10.20;80.10
10992;BME280;5549;47.028;15.514;2022-09-28T01:00:59;95320.00;;;10.23;80.24
10992;BME280;5549;47.028;15.514;2022-09-28T01:03:38;95313.09;;;10.22;80.36
10992;BME280;5549;47.028;15.514;2022-09-28T01:06:17;95316.72;;;10.21;79.63
10992;BME280;5549;47.028;15.514;2022-09-28T01:08:47;95319.78;;;10.16;79.72
10992;BME280;5549;47.028;15.514;2022-09-28T01:11:19;95316.19;;;10.17;80.27
10992;BME280;5549;47.028;15.514;2022-09-28T01:13:49;95321.25;;;10.19;80.06
10992;BME280;5549;47.028;15.514;2022-09-28T01:16:25;95322.41;;;10.16;79.35
10992;BME280;5549;47.028;15.514;2022-09-28T01:19:36;95317.31;;;10.15;79.22
10992;BME280;5549;47.028;15.514;2022-09-28T01:22:27;95311.41;;;10.13;79.26
10992;BME280;5549;47.028;15.514;2022-09-28T01:25:06;95313.50;;;10.09;79.30
10992;BME280;5549;47.028;15.514;2022-09-28T01:27:44;95322.50;;;10.07;79.32
10992;BME280;5549;47.028;15.514;2022-09-28T01:30:26;95321.19;;;10.03;78.53
10992;BME280;5549;47.028;15.514;2022-09-28T01:33:03;95319.50;;;9.93;78.66
10992;BME280;5549;47.028;15.514;2022-09-28T01:35:37;95317.94;;;9.83;78.28
10992;BME280;5549;47.028;15.514;2022-09-28T01:38:09;95318.97;;;9.64;79.09
10992;BME280;5549;47.028;15.514;2022-09-28T01:40:39;95316.66;;;9.61;79.39
10992;BME280;5549;47.028;15.514;2022-09-28T01:43:15;95308.44;;;9.56;79.03
10992;BME280;5549;47.028;15.514;2022-09-28T01:45:47;95296.97;;;9.57;79.47
10992;BME280;5549;47.028;15.514;2022-09-28T01:48:22;95298.94;;;9.55;79.37
10992;BME280;5549;47.028;15.514;2022-09-28T01:50:57;95293.69;;;9.55;79.26
10992;BME280;5549;47.028;15.514;2022-09-28T01:53:34;95287.31;;;9.57;79.39
10992;BME280;5549;47.028;15.514;2022-09-28T01:56:09;95278.16;;;9.61;79.27
10992;BME280;5549;47.028;15.514;2022-09-28T01:58:45;95277.34;;;9.61;78.75
10992;BME280;5549;47.028;15.514;2022-09-28T02:01:23;95290.59;;;9.59;79.14
10992;BME280;5549;47.028;15.514;2022-09-28T02:04:01;95279.31;;;9.59;78.90
10992;BME280;5549;47.028;15.514;2022-09-28T02:06:39;95278.31;;;9.60;78.69
10992;BME280;5549;47.028;15.514;2022-09-28T02:09:18;95283.72;;;9.58;78.20
10992;BME280;5549;47.028;15.514;2022-09-28T02:11:55;95289.56;;;9.52;77.84
10992;BME280;5549;47.028;15.514;2022-09-28T02:14:28;95276.13;;;9.47;77.82
10992;BME280;5549;47.028;15.514;2022-09-28T02:16:59;95269.69;;;9.42;78.00
10992;BME280;5549;47.028;15.514;2022-09-28T02:19:31;95266.03;;;9.35;77.82
10992;BME280;5549;47.028;15.514;2022-09-28T02:22:05;95270.91;;;9.29;78.38
10992;BME280;5549;47.028;15.514;2022-09-28T02:24:41;95274.13;;;9.23;78.14
10992;BME280;5549;47.028;15.514;2022-09-28T02:27:16;95271.16;;;9.18;78.29
10992;BME280;5549;47.028;15.514;2022-09-28T02:29:50;95272.44;;;9.14;78.84
10992;BME280;5549;47.028;15.514;2022-09-28T02:32:19;95264.06;;;9.11;79.47
10992;BME280;5549;47.028;15.514;2022-09-28T02:34:50;95265.84;;;9.10;78.60
10992;BME280;5549;47.028;15.514;2022-09-28T02:37:17;95263.84;;;9.04;79.56
10992;BME280;5549;47.028;15.514;2022-09-28T02:39:47;95265.47;;;9.05;79.41
10992;BME280;5549;47.028;15.514;2022-09-28T02:42:22;95265.34;;;9.07;78.89
10992;BME280;5549;47.028;15.514;2022-09-28T02:45:09;95266.97;;;9.08;79.08
10992;BME280;5549;47.028;15.514;2022-09-28T02:47:55;95265.69;;;9.12;78.85
10992;BME280;5549;47.028;15.514;2022-09-28T02:50:38;95266.53;;;9.12;78.55
10992;BME280;5549;47.028;15.514;2022-09-28T02:53:41;95261.16;;;8.96;79.32
10992;BME280;5549;47.028;15.514;2022-09-28T02:56:32;95267.06;;;8.80;79.97
10992;BME280;5549;47.028;15.514;2022-09-28T02:59:12;95265.72;;;8.76;80.51
10992;BME280;5549;47.028;15.514;2022-09-28T03:01:55;95256.91;;;8.77;79.76
10992;BME280;5549;47.028;15.514;2022-09-28T03:04:36;95263.25;;;8.75;79.95
10992;BME280;5549;47.028;15.514;2022-09-28T03:07:12;95273.28;;;8.79;80.05
10992;BME280;5549;47.028;15.514;2022-09-28T03:09:48;95273.41;;;8.78;79.86
10992;BME280;5549;47.028;15.514;2022-09-28T03:12:20;95269.31;;;8.75;80.09
10992;BME280;5549;47.028;15.514;2022-09-28T03:15:10;95281.13;;;8.79;79.53
10992;BME280;5549;47.028;15.514;2022-09-28T03:17:45;95274.75;;;8.82;79.57
10992;BME280;5549;47.028;15.514;2022-09-28T03:20:16;95275.59;;;8.82;79.52
10992;BME280;5549;47.028;15.514;2022-09-28T03:22:44;95278.22;;;8.82;79.11
10992;BME280;5549;47.028;15.514;2022-09-28T03:25:11;95276.34;;;8.75;79.45
10992;BME280;5549;47.028;15.514;2022-09-28T03:27:42;95266.16;;;8.72;78.99
10992;BME280;5549;47.028;15.514;2022-09-28T03:30:12;95266.00;;;8.73;79.39
10992;BME280;5549;47.028;15.514;2022-09-28T03:32:44;95263.41;;;8.73;79.06
10992;BME280;5549;47.028;15.514;2022-09-28T03:35:15;95258.31;;;8.72;78.89
10992;BME280;5549;47.028;15.514;2022-09-28T03:37:46;95252.41;;;8.70;78.75
10992;BME280;5549;47.028;15.514;2022-09-28T03:40:14;95253.38;;;8.68;78.42
10992;BME280;5549;47.028;15.514;2022-09-28T03:42:42;95257.53;;;8.61;78.86
10992;BME280;5549;47.028;15.514;2022-09-28T03:45:10;95260.75;;;8.55;78.89
10992;BME280;5549;47.028;15.514;2022-09-28T03:47:38;95260.75;;;8.55;78.88
10992;BME280;5549;47.028;15.514;2022-09-28T03:50:10;95265.00;;;8.56;79.30
10992;BME280;5549;47.028;15.514;2022-09-28T03:52:38;95255.34;;;8.57;79.09
10992;BME280;5549;47.028;15.514;2022-09-28T03:55:06;95245.56;;;8.59;78.71
10992;BME280;5549;47.028;15.514;2022-09-28T03:57:36;95241.00;;;8.61;78.98
10992;BME280;5549;47.028;15.514;2022-09-28T04:00:08;95249.31;;;8.56;78.48
10992;BME280;5549;47.028;15.514;2022-09-28T04:02:38;95247.94;;;8.52;78.90
10992;BME280;5549;47.028;15.514;2022-09-28T04:05:06;95247.94;;;8.52;78.35
10992;BME280;5549;47.028;15.514;2022-09-28T04:07:39;95245.19;;;8.54;78.54
10992;BME280;5549;47.028;15.514;2022-09-28T04:10:08;95251.25;;;8.54;78.19
10992;BME280;5549;47.028;15.514;2022-09-28T04:12:37;95239.13;;;8.53;78.09
10992;BME280;5549;47.028;15.514;2022-09-28T04:15:06;95239.88;;;8.46;78.27
10992;BME280;5549;47.028;15.514;2022-09-28T04:17:36;95237.84;;;8.40;78.46
10992;BME280;5549;47.028;15.514;2022-09-28T04:20:05;95239.53;;;8.31;78.46
10992;BME280;5549;47.028;15.514;2022-09-28T04:22:38;95230.19;;;8.28;78.63
10992;BME280;5549;47.028;15.514;2022-09-28T04:25:08;95223.31;;;8.27;78.83
10992;BME280;5549;47.028;15.514;2022-09-28T04:27:36;95214.41;;;8.20;78.64
10992;BME280;5549;47.028;15.514;2022-09-28T04:30:24;95212.09;;;8.17;79.05
10992;BME280;5549;47.028;15.514;2022-09-28T04:32:55;95213.50;;;8.12;78.77
10992;BME280;5549;47.028;15.514;2022-09-28T04:35:25;95213.31;;;7.95;79.61
10992;BME280;5549;47.028;15.514;2022-09-28T04:37:56;95215.28;;;7.84;80.02
10992;BME280;5549;47.028;15.514;2022-09-28T04:40:26;95209.16;;;7.75;81.19
10992;BME280;5549;47.028;15.514;2022-09-28T04:42:55;95211.81;;;7.65;81.11
10992;BME280;5549;47.028;15.514;2022-09-28T04:45:26;95218.81;;;7.65;81.49
10992;BME280;5549;47.028;15.514;2022-09-28T04:47:53;95226.50;;;7.66;80.93
10992;BME280;5549;47.028;15.514;2022-09-28T04:50:21;95235.44;;;7.73;80.88
10992;BME280;5549;47.028;15.514;2022-09-28T04:52:49;95230.72;;;7.77;80.87
10992;BME280;5549;47.028;15.514;2022-09-28T04:55:17;95237.75;;;7.77;80.76
10992;BME280;5549;47.028;15.514;2022-09-28T04:57:45;95246.81;;;7.82;80.46
10992;BME280;5549;47.028;15.514;2022-09-28T05:00:14;95249.53;;;7.90;80.29
10992;BME280;5549;47.028;15.514;2022-09-28T05:02:42;95253.50;;;7.94;80.03
10992;BME280;5549;47.028;15.514;2022-09-28T05:05:10;95249.09;;;7.95;80.17
10992;BME280;5549;47.028;15.514;2022-09-28T05:07:38;95253.72;;;8.01;79.70
10992;BME280;5549;47.028;15.514;2022-09-28T05:10:09;95255.91;;;8.05;80.03
10992;BME280;5549;47.028;15.514;2022-09-28T05:12:38;95255.34;;;8.12;79.79
10992;BME280;5549;47.028;15.514;2022-09-28T05:15:06;95255.88;;;8.15;79.44
10992;BME280;5549;47.028;15.514;2022-09-28T05:17:37;95246.75;;;8.19;79.38
10992;BME280;5549;47.028;15.514;2022-09-28T05:20:05;95241.22;;;8.22;79.19
10992;BME280;5549;47.028;15.514;2022-09-28T05:22:34;95247.81;;;8.26;78.86
10992;BME280;5549;47.028;15.514;2022-09-28T05:25:01;95252.06;;;8.27;78.76
10992;BME280;5549;47.028;15.514;2022-09-28T05:27:29;95242.06;;;8.23;79.09
10992;BME280;5549;47.028;15.514;2022-09-28T05:29:58;95246.03;;;8.27;79.38
10992;BME280;5549;47.028;15.514;2022-09-28T05:32:26;95244.75;;;8.31;78.91
10992;BME280;5549;47.028;15.514;2022-09-28T05:34:56;95234.72;;;8.36;79.07
10992;BME280;5549;47.028;15.514;2022-09-28T05:37:26;95234.03;;;8.34;79.57
10992;BME280;5549;47.028;15.514;2022-09-28T05:39:53;95224.81;;;8.30;79.91
10992;BME280;5549;47.028;15.514;2022-09-28T05:42:21;95226.75;;;8.28;80.26
10992;BME280;5549;47.028;15.514;2022-09-28T05:44:48;95226.31;;;8.32;80.59
10992;BME280;5549;47.028;15.514;2022-09-28T05:47:19;95225.47;;;8.32;81.18
10992;BME280;5549;47.028;15.514;2022-09-28T05:49:48;95222.84;;;8.42;80.85
10992;BME280;5549;47.028;15.514;2022-09-28T05:52:18;95214.91;;;8.51;82.03
10992;BME280;5549;47.028;15.514;2022-09-28T05:54:48;95210.22;;;8.90;83.62
10992;BME280;5549;47.028;15.514;2022-09-28T05:57:17;95201.31;;;9.27;86.21
10992;BME280;5549;47.028;15.514;2022-09-28T05:59:45;95185.25;;;9.56;86.53
10992;BME280;5549;47.028;15.514;2022-09-28T06:02:15;95186.44;;;9.61;84.07
10992;BME280;5549;47.028;15.514;2022-09-28T06:04:46;95180.88;;;9.30;81.48
10992;BME280;5549;47.028;15.514;2022-09-28T06:07:16;95180.50;;;9.25;82.61
10992;BME280;5549;47.028;15.514;2022-09-28T06:09:46;95176.34;;;9.15;82.18
10992;BME280;5549;47.028;15.514;2022-09-28T06:12:14;95178.72;;;9.26;80.83
10992;BME280;5549;47.028;15.514;2022-09-28T06:14:42;95183.34;;;9.32;80.47
10992;BME280;5549;47.028;15.514;2022-09-28T06:17:12;95186.50;;;9.44;80.25
10992;BME280;5549;47.028;15.514;2022-09-28T06:19:39;95188.50;;;9.50;80.15
10992;BME280;5549;47.028;15.514;2022-09-28T06:22:11;95193.66;;;9.68;80.19
10992;BME280;5549;47.028;15.514;2022-09-28T06:24:38;95191.94;;;9.84;80.52
10992;BME280;5549;47.028;15.514;2022-09-28T06:27:06;95184.78;;;10.03;80.14
10992;BME280;5549;47.028;15.514;2022-09-28T06:29:33;95199.00;;;10.26;80.40
10992;BME280;5549;47.028;15.514;2022-09-28T06:32:01;95197.28;;;10.51;79.60
10992;BME280;5549;47.028;15.514;2022-09-28T06:34:28;95189.59;;;10.74;77.25
10992;BME280;5549;47.028;15.514;2022-09-28T06:36:58;95192.22;;;10.90;75.19
10992;BME280;5549;47.028;15.514;2022-09-28T06:39:27;95191.53;;;11.20;74.67
10992;BME280;5549;47.028;15.514;2022-09-28T06:41:57;95187.22;;;11.52;74.68
10992;BME280;5549;47.028;15.514;2022-09-28T06:44:29;95196.50;;;11.87;74.07
10992;BME280;5549;47.028;15.514;2022-09-28T06:46:59;95199.69;;;12.22;74.33
10992;BME280;5549;47.028;15.514;2022-09-28T06:49:29;95192.13;;;12.49;72.95
10992;BME280;5549;47.028;15.514;2022-09-28T06:51:59;95189.31;;;12.74;72.18
10992;BME280;5549;47.028;15.514;2022-09-28T06:54:28;95179.47;;;12.91;69.02
10992;BME280;5549;47.028;15.514;2022-09-28T06:56:55;95179.13;;;12.94;68.83
10992;BME280;5549;47.028;15.514;2022-09-28T06:59:23;95175.38;;;12.88;69.82
10992;BME280;5549;47.028;15.514;2022-09-28T07:01:51;95169.75;;;12.91;70.28
10992;BME280;5549;47.028;15.514;2022-09-28T07:04:20;95171.28;;;12.85;71.07
10992;BME280;5549;47.028;15.514;2022-09-28T07:06:49;95168.72;;;12.77;70.46
10992;BME280;5549;47.028;15.514;2022-09-28T07:09:17;95169.53;;;12.78;70.73
10992;BME280;5549;47.028;15.514;2022-09-28T07:11:46;95176.09;;;12.82;71.09
10992;BME280;5549;47.028;15.514;2022-09-28T07:14:16;95175.75;;;12.85;70.43
10992;BME280;5549;47.028;15.514;2022-09-28T07:16:45;95165.41;;;12.98;70.34
10992;BME280;5549;47.028;15.514;2022-09-28T07:19:15;95155.34;;;13.25;70.54
10992;BME280;5549;47.028;15.514;2022-09-28T07:21:43;95159.53;;;13.48;70.16
10992;BME280;5549;47.028;15.514;2022-09-28T07:24:12;95157.53;;;13.65;69.84
10992;BME280;5549;47.028;15.514;2022-09-28T07:26:41;95148.00;;;13.79;70.06
10992;BME280;5549;47.028;15.514;2022-09-28T07:29:11;95139.97;;;13.72;69.44
10992;BME280;5549;47.028;15.514;2022-09-28T07:31:39;95136.34;;;13.73;70.24
10992;BME280;5549;47.028;15.514;2022-09-28T07:34:09;95135.63;;;13.79;69.09
10992;BME280;5549;47.028;15.514;2022-09-28T07:36:37;95135.81;;;13.93;69.74
10992;BME280;5549;47.028;15.514;2022-09-28T07:39:05;95134.97;;;14.07;68.57
10992;BME280;5549;47.028;15.514;2022-09-28T07:41:35;95135.56;;;14.24;67.86
10992;BME280;5549;47.028;15.514;2022-09-28T07:44:03;95143.56;;;14.30;66.13
10992;BME280;5549;47.028;15.514;2022-09-28T07:46:33;95138.47;;;14.43;66.94
10992;BME280;5549;47.028;15.514;2022-09-28T07:49:04;95144.75;;;14.28;64.73
10992;BME280;5549;47.028;15.514;2022-09-28T07:51:32;95144.41;;;14.16;65.80
10992;BME280;5549;47.028;15.514;2022-09-28T07:54:02;95138.78;;;14.19;66.28
10992;BME280;5549;47.028;15.514;2022-09-28T07:56:32;95124.56;;;14.20;67.67
10992;BME280;5549;47.028;15.514;2022-09-28T07:59:00;95128.56;;;14.16;67.53
10992;BME280;5549;47.028;15.514;2022-09-28T08:01:28;95135.94;;;14.21;66.40
10992;BME280;5549;47.028;15.514;2022-09-28T08:04:00;95126.03;;;14.08;65.21
10992;BME280;5549;47.028;15.514;2022-09-28T08:06:29;95129.63;;;14.00;66.86
10992;BME280;5549;47.028;15.514;2022-09-28T08:08:59;95137.59;;;14.07;67.02
10992;BME280;5549;47.028;15.514;2022-09-28T08:11:27;95143.78;;;14.14;68.02
10992;BME280;5549;47.028;15.514;2022-09-28T08:13:57;95130.22;;;14.17;69.61
10992;BME280;5549;47.028;15.514;2022-09-28T08:16:27;95124.44;;;14.28;68.61
10992;BME280;5549;47.028;15.514;2022-09-28T08:18:56;95129.28;;;14.25;65.09
10992;BME280;5549;47.028;15.514;2022-09-28T08:21:27;95120.28;;;14.19;65.08
10992;BME280;5549;47.028;15.514;2022-09-28T08:24:13;95120.53;;;14.24;65.86
10992;BME280;5549;47.028;15.514;2022-09-28T08:26:41;95127.75;;;14.16;65.59
10992;BME280;5549;47.028;15.514;2022-09-28T08:29:09;95126.41;;;14.05;67.06
10992;BME280;5549;47.028;15.514;2022-09-28T08:31:39;95126.88;;;14.08;68.16
10992;BME280;5549;47.028;15.514;2022-09-28T08:34:07;95130.69;;;14.06;66.77
10992;BME280;5549;47.028;15.514;2022-09-28T08:36:38;95128.78;;;14.00;65.94
10992;BME280;5549;47.028;15.514;2022-09-28T08:39:06;95130.50;;;14.07;66.65
10992;BME280;5549;47.028;15.514;2022-09-28T08:41:41;95123.75;;;14.20;67.03
10992;BME280;5549;47.028;15.514;2022-09-28T08:44:17;95111.69;;;14.32;68.00
10992;BME280;5549;47.028;15.514;2022-09-28T08:46:54;95112.50;;;14.32;67.59
10992;BME280;5549;47.028;15.514;2022-09-28T08:49:29;95111.25;;;14.28;66.08
10992;BME280;5549;47.028;15.514;2022-09-28T08:52:12;95107.09;;;14.19;65.12
10992;BME280;5549;47.028;15.514;2022-09-28T08:54:47;95104.44;;;14.19;66.47
10992;BME280;5549;47.028;15.514;2022-09-28T08:57:19;95111.09;;;14.15;65.89
10992;BME280;5549;47.028;15.514;2022-09-28T08:59:52;95112.00;;;14.22;66.81
10992;BME280;5549;47.028;15.514;2022-09-28T09:02:27;95110.66;;;14.48;66.69
10992;BME280;5549;47.028;15.514;2022-09-28T09:04:57;95110.78;;;14.61;67.03
10992;BME280;5549;47.028;15.514;2022-09-28T09:07:50;95104.50;;;14.62;66.85
10992;BME280;5549;47.028;15.514;2022-09-28T09:10:44;95106.56;;;14.66;65.51
10992;BME280;5549;47.028;15.514;2022-09-28T09:13:50;95101.84;;;14.62;66.05
10992;BME280;5549;47.028;15.514;2022-09-28T09:16:38;95095.06;;;14.53;66.32
10992;BME280;5549;47.028;15.514;2022-09-28T09:19:28;95103.94;;;14.45;65.79
10992;BME280;5549;47.028;15.514;2022-09-28T09:22:14;95106.84;;;14.35;66.78
10992;BME280;5549;47.028;15.514;2022-09-28T09:24:49;95106.34;;;14.25;67.33
10992;BME280;5549;47.028;15.514;2022-09-28T09:27:41;95099.16;;;14.19;68.74
10992;BME280;5549;47.028;15.514;2022-09-28T09:30:14;95109.03;;;14.10;69.87
10992;BME280;5549;47.028;15.514;2022-09-28T09:33:21;95104.31;;;13.76;71.67
10992;BME280;5549;47.028;15.514;2022-09-28T09:36:10;95094.59;;;13.62;72.79
10992;BME280;5549;47.028;15.514;2022-09-28T09:38:51;95097.78;;;13.58;72.78
10992;BME280;5549;47.028;15.514;2022-09-28T09:41:38;95104.75;;;13.06;72.82
10992;BME280;5549;47.028;15.514;2022-09-28T09:47:24;95120.34;;;13.31;74.29
10992;BME280;5549;47.028;15.514;2022-09-28T09:50:00;95117.06;;;13.29;74.17
10992;BME280;5549;47.028;15.514;2022-09-28T09:52:36;95111.16;;;13.27;74.44
10992;BME280;5549;47.028;15.514;2022-09-28T09:55:17;95097.34;;;13.25;74.68
10992;BME280;5549;47.028;15.514;2022-09-28T09:58:03;95096.69;;;13.23;73.92
10992;BME280;5549;47.028;15.514;2022-09-28T10:00:32;95096.97;;;13.28;73.98
10992;BME280;5549;47.028;15.514;2022-09-28T10:03:00;95096.25;;;13.34;73.67
10992;BME280;5549;47.028;15.514;2022-09-28T10:05:31;95090.53;;;13.45;74.28
10992;BME280;5549;47.028;15.514;2022-09-28T10:08:10;95090.25;;;13.40;74.14
10992;BME280;5549;47.028;15.514;2022-09-28T10:10:47;95083.16;;;13.26;74.30
10992;BME280;5549;47.028;15.514;2022-09-28T10:13:18;95097.16;;;13.41;73.17
10992;BME280;5549;47.028;15.514;2022-09-28T10:15:45;95084.59;;;13.58;73.13
10992;BME280;5549;47.028;15.514;2022-09-28T10:18:18;95087.31;;;13.64;73.47
10992;BME280;5549;47.028;15.514;2022-09-28T10:20:47;95082.94;;;13.71;72.31
10992;BME280;5549;47.028;15.514;2022-09-28T10:23:23;95083.75;;;13.72;73.73
10992;BME280;5549;47.028;15.514;2022-09-28T10:25:58;95079.50;;;13.71;72.18
10992;BME280;5549;47.028;15.514;2022-09-28T10:28:39;95070.53;;;13.87;72.52
10992;BME280;5549;47.028;15.514;2022-09-28T10:31:39;95074.19;;;13.86;73.39
10992;BME280;5549;47.028;15.514;2022-09-28T10:34:12;95062.09;;;13.91;73.13
10992;BME280;5549;47.028;15.514;2022-09-28T10:36:47;95057.78;;;14.05;73.19
10992;BME280;5549;47.028;15.514;2022-09-28T10:39:32;95061.56;;;14.17;72.69
10992;BME280;5549;47.028;15.514;2022-09-28T10:42:06;95066.22;;;14.36;71.06
10992;BME280;5549;47.028;15.514;2022-09-28T10:44:49;95062.47;;;14.24;72.36
10992;BME280;5549;47.028;15.514;2022-09-28T10:47:20;95064.41;;;14.37;72.76
10992;BME280;5549;47.028;15.514;2022-09-28T10:49:52;95065.03;;;14.39;71.48
10992;BME280;5549;47.028;15.514;2022-09-28T10:52:38;95072.63;;;14.42;72.15
10992;BME280;5549;47.028;15.514;2022-09-28T10:55:28;95075.69;;;14.46;72.42
10992;BME280;5549;47.028;15.514;2022-09-28T10:58:00;95074.06;;;14.44;73.42
10992;BME280;5549;47.028;15.514;2022-09-28T11:00:47;95069.13;;;14.41;72.93
10992;BME280;5549;47.028;15.514;2022-09-28T11:03:19;95066.13;;;14.44;73.05
10992;BME280;5549;47.028;15.514;2022-09-28T11:05:58;95054.44;;;14.54;73.86
10992;BME280;5549;47.028;15.514;2022-09-28T11:08:30;95049.03;;;14.62;72.79
10992;BME280;5549;47.028;15.514;2022-09-28T11:11:06;95057.56;;;14.64;73.64
10992;BME280;5549;47.028;15.514;2022-09-28T11:13:45;95051.91;;;14.67;72.46
10992;BME280;5549;47.028;15.514;2022-09-28T11:16:27;95047.50;;;14.74;73.09
10992;BME280;5549;47.028;15.514;2022-09-28T11:18:57;95037.75;;;14.74;71.99
10992;BME280;5549;47.028;15.514;2022-09-28T11:21:27;95043.06;;;14.81;71.20
10992;BME280;5549;47.028;15.514;2022-09-28T11:24:02;95035.44;;;14.93;71.33
10992;BME280;5549;47.028;15.514;2022-09-28T11:26:39;95025.53;;;15.01;71.02
10992;BME280;5549;47.028;15.514;2022-09-28T11:29:20;95016.81;;;15.07;70.02
10992;BME280;5549;47.028;15.514;2022-09-28T11:31:50;95023.00;;;15.21;69.68
10992;BME280;5549;47.028;15.514;2022-09-28T11:34:22;95020.63;;;15.33;70.05
10992;BME280;5549;47.028;15.514;2022-09-28T11:37:30;95017.44;;;15.44;70.02
10992;BME280;5549;47.028;15.514;2022-09-28T11:40:13;95011.75;;;15.47;68.95
10992;BME280;5549;47.028;15.514;2022-09-28T11:42:52;95013.19;;;15.56;68.75
10992;BME280;5549;47.028;15.514;2022-09-28T11:45:39;95004.03;;;15.52;68.80
10992;BME280;5549;47.028;15.514;2022-09-28T11:48:26;95009.94;;;15.54;70.68
10992;BME280;5549;47.028;15.514;2022-09-28T11:51:02;95013.59;;;15.53;68.76
10992;BME280;5549;47.028;15.514;2022-09-28T11:53:35;95013.78;;;15.52;67.91
10992;BME280;5549;47.028;15.514;2022-09-28T11:56:14;95009.72;;;15.49;67.70
10992;BME280;5549;47.028;15.514;2022-09-28T11:58:48;95007.28;;;15.54;68.84
10992;BME280;5549;47.028;15.514;2022-09-28T12:01:25;95005.41;;;15.76;69.10
10992;BME280;5549;47.028;15.514;2022-09-28T12:03:59;95006.28;;;15.96;68.40
10992;BME280;5549;47.028;15.514;2022-09-28T12:06:37;94994.28;;;16.07;68.81
10992;BME280;5549;47.028;15.514;2022-09-28T12:09:15;94992.47;;;16.14;68.22
10992;BME280;5549;47.028;15.514;2022-09-28T12:11:50;94990.63;;;16.21;67.58
10992;BME280;5549;47.028;15.514;2022-09-28T12:14:25;94992.06;;;16.24;67.68
10992;BME280;5549;47.028;15.514;2022-09-28T12:17:01;94991.25;;;16.23;67.10
10992;BME280;5549;47.028;15.514;2022-09-28T12:19:37;94995.09;;;16.14;66.24
10992;BME280;5549;47.028;15.514;2022-09-28T12:22:15;94999.19;;;16.10;67.42
10992;BME280;5549;47.028;15.514;2022-09-28T12:24:47;94995.69;;;16.03;66.48
10992;BME280;5549;47.028;15.514;2022-09-28T12:27:22;94992.84;;;16.04;67.63
10992;BME280;5549;47.028;15.514;2022-09-28T12:30:01;94981.81;;;15.94;67.48
10992;BME280;5549;47.028;15.514;2022-09-28T12:32:35;94982.84;;;15.93;68.63
10992;BME280;5549;47.028;15.514;2022-09-28T12:35:13;94973.50;;;16.04;69.28
10992;BME280;5549;47.028;15.514;2022-09-28T12:38:07;94964.13;;;16.08;69.06
10992;BME280;5549;47.028;15.514;2022-09-28T12:40:53;94964.34;;;16.07;70.96
10992;BME280;5549;47.028;15.514;2022-09-28T12:43:54;94953.34;;;16.23;68.99
10992;BME280;5549;47.028;15.514;2022-09-28T12:46:40;94961.50;;;16.21;69.57
10992;BME280;5549;47.028;15.514;2022-09-28T12:49:42;94956.00;;;16.36;68.36
10992;BME280;5549;47.028;15.514;2022-09-28T12:52:31;94956.41;;;16.40;67.71
10992;BME280;5549;47.028;15.514;2022-09-28T12:55:21;94951.31;;;16.45;69.17
10992;BME280;5549;47.028;15.514;2022-09-28T12:57:59;94960.69;;;16.47;68.74
10992;BME280;5549;47.028;15.514;2022-09-28T13:00:37;94949.28;;;16.47;68.62
10992;BME280;5549;47.028;15.514;2022-09-28T13:03:38;94950.09;;;16.54;69.43
10992;BME280;5549;47.028;15.514;2022-09-28T13:06:35;94949.47;;;16.52;69.57
10992;BME280;5549;47.028;15.514;2022-09-28T13:09:16;94948.06;;;16.56;69.63
10992;BME280;5549;47.028;15.514;2022-09-28T13:12:10;94953.34;;;16.62;69.39
10992;BME280;5549;47.028;15.514;2022-09-28T13:15:30;94951.13;;;16.66;69.81
10992;BME280;5549;47.028;15.514;2022-09-28T13:18:09;94956.22;;;16.74;70.44
10992;BME280;5549;47.028;15.514;2022-09-28T13:20:55;94951.31;;;16.84;69.58
10992;BME280;5549;47.028;15.514;2022-09-28T13:23:28;94944.75;;;16.93;69.43
10992;BME280;5549;47.028;15.514;2022-09-28T13:26:10;94948.63;;;16.97;70.37
10992;BME280;5549;47.028;15.514;2022-09-28T13:28:42;94950.69;;;16.95;70.37
10992;BME280;5549;47.028;15.514;2022-09-28T13:31:19;94953.31;;;16.95;70.57
10992;BME280;5549;47.028;15.514;2022-09-28T13:33:49;94952.28;;;17.03;71.56
10992;BME280;5549;47.028;15.514;2022-09-28T13:36:38;94953.53;;;16.87;70.09
10992;BME280;5549;47.028;15.514;2022-09-28T13:39:34;94953.38;;;16.69;69.80
10992;BME280;5549;47.028;15.514;2022-09-28T13:42:05;94950.50;;;16.77;70.42
10992;BME280;5549;47.028;15.514;2022-09-28T13:45:04;94950.72;;;16.76;70.61
10992;BME280;5549;47.028;15.514;2022-09-28T13:47:56;94951.31;;;16.71;70.62
10992;BME280;5549;47.028;15.514;2022-09-28T13:50:46;94944.19;;;16.65;70.20